Flight Track Log - Related Links

Times and Time Zones

All times are in EDT time to prevent confusion due to time zone crossing. See the CTL309 flight status page for this flight to view local times or setup timezone preferences in your user account.

Time Position Orientation Groundspeed Altitude Reporting Facility
EDT Latitude Longitude Course Direction KTS MPH feet Rate Location/Type
Sat 04:04:22 AM 40.0711 -83.1125 237° Southwest 129 148 1,400  Level Indianapolis Center
Sat 04:05:28 AM 40.0475 -83.1606 237° Southwest 138 159 1,900 393 Climbing Indianapolis Center
Sat 04:06:09 AM 40.0383 -83.1833 242° Southwest 135 155 2,100 297 Climbing Indianapolis Center
Sat 04:07:09 AM 40.0211 -83.2242 241° Southwest 132 152 2,400 298 Climbing Indianapolis Center
Sat 04:08:10 AM 40.0014 -83.2672 239° Southwest 134 154 2,700 496 Climbing Indianapolis Center
Sat 04:09:10 AM 39.9822 -83.3072 238° Southwest 132 152 3,400 700 Climbing Indianapolis Center
Sat 04:10:10 AM 39.9628 -83.3422 234° Southwest 126 145 4,100 350 Climbing Indianapolis Center
Sat 04:11:10 AM 39.9425 -83.3825 237° Southwest 127 146 4,100  Level Indianapolis Center
Sat 04:12:10 AM 39.9203 -83.4278 237° Southwest 138 159 4,100 -50 Level Indianapolis Center
Sat 04:13:10 AM 39.8950 -83.4725 234° Southwest 146 168 4,000  Descending Indianapolis Center
Sat 04:14:10 AM 39.8747 -83.5183 240° Southwest 148 170 4,100 50 Climbing Indianapolis Center
Sat 04:15:11 AM 39.8547 -83.5639 240° Southwest 147 169 4,100  Level Indianapolis Center
Sat 04:16:11 AM 39.8369 -83.6128 245° Southwest 147 169 4,100  Level Indianapolis Center
Sat 04:17:11 AM 39.8164 -83.6581 239° Southwest 146 168 4,100  Level Indianapolis Center
Sat 04:18:11 AM 39.7947 -83.7022 237° Southwest 145 167 4,100  Level Indianapolis Center
Sat 04:19:11 AM 39.7758 -83.7492 242° Southwest 145 167 4,100  Level Indianapolis Center
Sat 04:20:11 AM 39.7519 -83.7933 235° Southwest 147 169 4,100  Level Indianapolis Center
Sat 04:21:11 AM 39.7269 -83.8369 233° Southwest 148 170 4,100  Level Indianapolis Center
Sat 04:22:11 AM 39.7025 -83.8800 234° Southwest 148 170 4,100  Level Indianapolis Center
Sat 04:23:12 AM 39.6811 -83.9258 239° Southwest 147 169 4,100  Level Indianapolis Center
Sat 04:24:12 AM 39.6639 -83.9747 245° Southwest 147 169 4,100  Level Indianapolis Center
Sat 04:25:12 AM 39.6428 -84.0217 240° Southwest 148 170 4,100  Level Indianapolis Center
Sat 04:26:12 AM 39.6203 -84.0675 238° Southwest 149 171 4,100  Level Indianapolis Center
Sat 04:27:12 AM 39.5944 -84.1108 232° Southwest 150 173 4,100  Level Indianapolis Center
Sat 04:28:12 AM 39.5706 -84.1564 236° Southwest 151 174 4,100 -50 Level Indianapolis Center
Sat 04:29:13 AM 39.5456 -84.2006 234° Southwest 151 174 4,000 -298 Descending Indianapolis Center
Sat 04:30:13 AM 39.5197 -84.2461 234° Southwest 153 176 3,500 -450 Descending Indianapolis Center
Sat 04:31:13 AM 39.4903 -84.2936 231° Southwest 161 185 3,100 -400 Descending Indianapolis Center
Sat 04:33:00 AM 39.4338 -84.3549 232° Southwest  Level FlightAware Approximate
Sat 04:40:00 AM 39.3500 -84.5167 229° Southwest  Level FlightAware Approximate
Sat 04:41:00 AM 39.3638 -84.5219 229° Southwest  Level Estimated
Sat 04:42:00 AM 39.3638 -84.5219 229° Southwest  Level Estimated
Sat 04:43:00 AM 39.3638 -84.5219 229° Southwest  Level Estimated
Sat 04:44:00 AM 39.3638 -84.5219 229° Southwest  Level Estimated
Sat 04:45:00 AM 39.3638 -84.5219 229° Southwest  Level Estimated
Sat 04:46:00 AM 39.3638 -84.5219 229° Southwest  Level Estimated
Sat 04:47:00 AM 39.3638 -84.5219 229° Southwest  Level Estimated

Login

Don't have an account? Register now (free) for customized features, flight alerts, and more!